Time;durP1;ratioP1;P1;durP2;ratioP2;P2;SDS_P1;SDS_P2;PMS_P1;PMS_P2;Temp;Humidity;BMP_temperature;BMP_pressure;BME280_temperature;BME280_humidity;BME280_pressure;Samples;Min_cycle;Max_cycle;Signal;HPM_P1;HPM_P2
2022/04/17 00:00:35;;;;;;;2.93;2.73;;;;;;;3.74;77.51;99432.09;5074617;28;20223;-61
2022/04/17 00:03:02;;;;;;;4.20;3.50;;;;;;;3.76;77.70;99434.69;5074240;28;20630;-62
2022/04/17 00:05:28;;;;;;;3.60;3.27;;;;;;;3.78;77.21;99439.00;5074274;28;20211;-61
2022/04/17 00:07:55;;;;;;;3.67;3.13;;;;;;;3.82;76.15;99435.44;5072431;28;20258;-61
2022/04/17 00:10:21;;;;;;;3.23;3.00;;;;;;;3.83;75.70;99437.16;5074440;28;20291;-61
2022/04/17 00:12:49;;;;;;;4.10;3.00;;;;;;;3.86;75.22;99436.22;5074046;28;20750;-61
2022/04/17 00:15:16;;;;;;;4.20;2.80;;;;;;;3.87;75.42;99428.34;5073936;28;20692;-61
2022/04/17 00:17:43;;;;;;;4.53;3.60;;;;;;;3.95;74.69;99433.38;5074324;28;20214;-62
2022/04/17 00:20:11;;;;;;;3.30;3.00;;;;;;;3.91;74.63;99437.00;5074030;28;20250;-61
2022/04/17 00:22:38;;;;;;;3.30;3.00;;;;;;;3.73;75.65;99440.00;5074059;28;20705;-61
2022/04/17 00:25:06;;;;;;;3.30;3.00;;;;;;;3.55;77.50;99436.00;5074047;28;20218;-61
2022/04/17 00:27:33;;;;;;;3.40;3.10;;;;;;;3.42;78.42;99424.06;5068911;28;20220;-61
2022/04/17 00:30:01;;;;;;;4.33;3.50;;;;;;;3.38;78.63;99417.22;5063186;28;20680;-61
2022/04/17 00:32:27;;;;;;;3.23;2.93;;;;;;;3.32;78.31;99422.56;5072380;28;20222;-61
2022/04/17 00:34:54;;;;;;;4.90;2.97;;;;;;;3.28;78.47;99412.19;5074194;28;20241;-61
2022/04/17 00:37:20;;;;;;;3.47;3.10;;;;;;;3.34;77.63;99410.31;5062889;28;20228;-61
2022/04/17 00:39:47;;;;;;;4.00;3.00;;;;;;;3.38;77.32;99411.13;5073624;28;20223;-62
2022/04/17 00:42:13;;;;;;;3.20;2.90;;;;;;;3.35;77.57;99406.81;5073636;28;20257;-60
2022/04/17 00:44:40;;;;;;;3.30;3.00;;;;;;;3.24;78.50;99403.53;5073336;28;20218;-60
2022/04/17 00:47:11;;;;;;;3.20;2.90;;;;;;;3.17;79.13;99401.94;5073696;28;20571;-61
2022/04/17 00:49:38;;;;;;;3.33;3.03;;;;;;;3.06;79.69;99398.69;5073341;28;20212;-62
2022/04/17 00:52:06;;;;;;;3.37;3.07;;;;;;;2.99;80.00;99397.09;5073849;28;20269;-61
2022/04/17 00:54:34;;;;;;;3.60;3.10;;;;;;;2.91;80.57;99399.00;5073615;28;20210;-62
2022/04/17 00:57:01;;;;;;;3.60;3.30;;;;;;;2.80;81.29;99394.84;5068644;28;20214;-62
2022/04/17 00:59:28;;;;;;;4.63;3.37;;;;;;;2.72;81.75;99392.38;5070391;28;20222;-61
2022/04/17 01:01:54;;;;;;;3.47;3.00;;;;;;;2.64;82.72;99390.81;5067058;28;20246;-61
2022/04/17 01:04:22;;;;;;;4.77;3.27;;;;;;;2.59;82.56;99388.28;5059215;28;20214;-61
2022/04/17 01:06:49;;;;;;;3.70;3.20;;;;;;;2.56;82.59;99396.16;5062236;28;20667;-61
2022/04/17 01:09:16;;;;;;;3.27;2.87;;;;;;;2.57;83.03;99391.81;5061131;28;20218;-62
2022/04/17 01:11:44;;;;;;;5.47;3.47;;;;;;;2.52;83.03;99391.00;5064678;28;20215;-62
2022/04/17 01:14:12;;;;;;;5.33;3.33;;;;;;;2.48;83.21;99391.94;5073347;28;20222;-63
2022/04/17 01:16:39;;;;;;;4.00;3.40;;;;;;;2.47;83.10;99378.06;5073233;28;20225;-63
2022/04/17 01:19:11;;;;;;;4.03;2.70;;;;;;;2.45;83.27;99384.19;5073313;28;20219;-63
2022/04/17 01:21:40;;;;;;;3.43;3.03;;;;;;;2.39;83.71;99387.75;5073234;28;20216;-62
2022/04/17 01:26:59;;;;;;;3.40;2.83;;;;;;;2.34;84.76;99383.50;5072916;28;20305;-62
2022/04/17 01:29:28;;;;;;;3.17;2.97;;;;;;;2.30;85.25;99377.47;5073099;28;20249;-62
2022/04/17 01:31:55;;;;;;;3.40;3.10;;;;;;;2.30;84.97;99377.47;5072794;28;20677;-62
2022/04/17 01:34:23;;;;;;;4.10;2.97;;;;;;;2.25;84.93;99373.22;5073059;28;20574;-61
2022/04/17 01:36:51;;;;;;;4.60;2.80;;;;;;;2.22;84.34;99373.28;5073028;28;20220;-61
2022/04/17 01:39:19;;;;;;;5.73;3.30;;;;;;;2.10;84.97;99373.47;5073019;28;20219;-62
2022/04/17 01:41:46;;;;;;;6.33;3.30;;;;;;;2.05;86.10;99367.47;5072917;28;20296;-62
2022/04/17 01:44:12;;;;;;;3.27;2.90;;;;;;;2.09;85.88;99367.38;5061573;28;20214;-60
2022/04/17 01:46:39;;;;;;;3.87;2.97;;;;;;;2.10;85.15;99363.91;5072590;28;20211;-60
2022/04/17 01:49:05;;;;;;;4.80;3.27;;;;;;;2.08;85.42;99360.44;5072921;28;20229;-61
2022/04/17 01:51:38;;;;;;;3.10;2.80;;;;;;;2.06;85.39;99357.00;5070949;28;20227;-60
2022/04/17 01:54:06;;;;;;;3.20;2.90;;;;;;;2.02;85.53;99360.53;5067969;28;20220;-61
2022/04/17 01:56:33;;;;;;;4.20;3.10;;;;;;;2.01;85.38;99374.47;5072837;28;20243;-61
2022/04/17 01:58:59;;;;;;;3.17;2.87;;;;;;;1.97;85.49;99357.16;5072653;28;20223;-62
2022/04/17 02:01:26;;;;;;;3.07;2.80;;;;;;;1.96;85.44;99363.25;5072758;28;20211;-62
2022/04/17 02:03:53;;;;;;;3.60;3.07;;;;;;;1.91;85.25;99351.19;5067403;28;20261;-62
2022/04/17 02:06:19;;;;;;;4.20;3.13;;;;;;;1.85;86.06;99354.72;5072506;28;20589;-61
2022/04/17 02:08:46;;;;;;;3.00;2.70;;;;;;;1.84;86.09;99350.41;5072797;28;20219;-62
2022/04/17 02:11:14;;;;;;;3.67;2.90;;;;;;;1.85;86.64;99346.06;5072674;28;20223;-61
2022/04/17 02:13:41;;;;;;;3.50;3.20;;;;;;;1.82;86.57;99346.09;5072420;28;20223;-61
2022/04/17 02:16:08;;;;;;;4.33;2.90;;;;;;;1.81;87.18;99347.88;5061284;28;20218;-61
2022/04/17 02:18:34;;;;;;;3.70;3.30;;;;;;;1.82;87.00;99346.97;5073524;28;20215;-61
2022/04/17 02:21:01;;;;;;;3.90;3.50;;;;;;;1.78;87.30;99342.69;5076407;28;20220;-61
2022/04/17 02:23:27;;;;;;;3.53;3.00;;;;;;;1.70;87.90;99341.94;5076016;28;20232;-61
2022/04/17 02:25:54;;;;;;;4.60;3.30;;;;;;;1.70;88.05;99347.16;5076659;28;20219;-61
2022/04/17 02:28:22;;;;;;;3.83;3.30;;;;;;;1.70;88.53;99328.91;5076394;28;20222;-61
2022/04/17 02:30:48;;;;;;;3.40;3.00;;;;;;;1.73;88.26;99331.47;5076313;28;20217;-61
2022/04/17 02:33:15;;;;;;;4.90;3.70;;;;;;;1.64;88.58;99331.63;5076094;28;20215;-61
2022/04/17 02:35:41;;;;;;;3.90;3.50;;;;;;;1.62;89.78;99332.50;5076050;28;20226;-62
2022/04/17 02:38:07;;;;;;;4.23;3.13;;;;;;;1.62;90.74;99328.19;5076218;28;20566;-62
2022/04/17 02:40:34;;;;;;;3.93;3.20;;;;;;;1.67;90.40;99330.72;5076164;28;20222;-61
2022/04/17 02:43:00;;;;;;;3.60;3.30;;;;;;;1.61;90.20;99325.59;5074284;28;20235;-61
2022/04/17 02:45:28;;;;;;;4.37;3.30;;;;;;;1.64;90.60;99323.78;5075929;28;20219;-61
2022/04/17 02:47:55;;;;;;;2.90;2.70;;;;;;;1.70;89.78;99320.22;5075750;28;20215;-60
2022/04/17 02:50:22;;;;;;;3.60;3.30;;;;;;;1.69;89.34;99319.38;5076044;28;20271;-61
2022/04/17 02:52:49;;;;;;;3.90;3.13;;;;;;;1.69;89.70;99318.50;5075822;28;20225;-62
2022/04/17 02:55:15;;;;;;;4.30;3.40;;;;;;;1.72;89.02;99314.09;5075602;28;20609;-62
2022/04/17 02:57:42;;;;;;;3.47;3.17;;;;;;;1.69;89.38;99316.78;5075789;28;20211;-61
2022/04/17 03:00:10;;;;;;;3.10;2.80;;;;;;;1.68;88.96;99317.66;5075790;28;20218;-62
2022/04/17 03:05:38;;;;;;;3.47;3.07;;;;;;;1.67;88.79;99299.44;5075473;28;20344;-61
2022/04/17 03:08:06;;;;;;;5.07;3.90;;;;;;;1.68;88.34;99302.03;5074821;28;20694;-62
2022/04/17 03:10:33;;;;;;;3.40;3.10;;;;;;;1.63;88.02;99302.97;5075104;28;20618;-61
2022/04/17 03:12:59;;;;;;;3.70;3.10;;;;;;;1.52;88.55;99295.31;5075047;28;20252;-61
2022/04/17 03:15:26;;;;;;;4.17;3.10;;;;;;;1.40;89.97;99292.91;5075118;28;20218;-61
2022/04/17 03:17:54;;;;;;;3.40;3.10;;;;;;;1.38;90.04;99291.19;5075445;28;20227;-60
2022/04/17 03:20:21;;;;;;;3.37;3.07;;;;;;;1.39;89.52;99296.38;5075202;28;20217;-61
2022/04/17 03:22:48;;;;;;;3.93;3.10;;;;;;;1.36;89.94;99293.81;5075293;28;20238;-61
2022/04/17 03:25:16;;;;;;;3.83;3.00;;;;;;;1.38;89.92;99302.47;5065004;28;20216;-61
2022/04/17 03:27:46;;;;;;;3.57;3.10;;;;;;;1.41;89.04;99305.03;5075286;28;20216;-61
2022/04/17 03:30:14;;;;;;;3.50;3.20;;;;;;;1.31;89.73;99298.25;5066458;28;20247;-62
2022/04/17 03:32:41;;;;;;;3.83;3.37;;;;;;;1.31;89.99;99303.47;5074956;28;20215;-62
2022/04/17 03:35:09;;;;;;;3.67;3.30;;;;;;;1.29;89.92;99310.41;5073169;28;20216;-62
2022/04/17 03:37:36;;;;;;;4.23;3.50;;;;;;;1.24;90.95;99308.75;5075133;28;20590;-62
2022/04/17 03:40:03;;;;;;;4.33;3.20;;;;;;;1.23;91.27;99318.31;5074750;28;20699;-61
2022/04/17 03:42:29;;;;;;;4.50;3.87;;;;;;;1.26;90.47;99315.69;5074572;28;20248;-61
2022/04/17 03:44:55;;;;;;;3.50;3.20;;;;;;;1.18;92.15;99320.09;5074651;28;20230;-61
2022/04/17 03:47:22;;;;;;;6.13;3.97;;;;;;;1.16;92.94;99308.88;5074878;28;20225;-61
2022/04/17 03:49:49;;;;;;;3.93;3.63;;;;;;;1.13;92.93;99305.44;5074786;28;20562;-61
2022/04/17 03:52:16;;;;;;;5.97;3.63;;;;;;;1.28;92.29;99306.09;5074586;28;20430;-62
2022/04/17 03:54:43;;;;;;;4.73;3.90;;;;;;;1.36;90.90;99304.22;5074860;28;20585;-62
2022/04/17 03:57:09;;;;;;;4.00;3.60;;;;;;;1.44;89.78;99307.59;5074346;28;20226;-62
2022/04/17 03:59:36;;;;;;;4.50;3.50;;;;;;;1.64;88.73;99302.94;5074572;28;20296;-62
2022/04/17 04:02:03;;;;;;;3.83;3.50;;;;;;;1.81;87.01;99308.75;5073251;28;20210;-61
2022/04/17 04:04:30;;;;;;;3.70;3.37;;;;;;;1.75;86.91;99305.38;5063463;28;20246;-61
2022/04/17 04:06:56;;;;;;;4.03;3.20;;;;;;;1.58;88.29;99296.97;5074707;28;20214;-61
2022/04/17 04:09:24;;;;;;;3.87;3.50;;;;;;;1.44;88.38;99286.78;5074387;28;20223;-61
2022/04/17 04:11:50;;;;;;;4.23;3.80;;;;;;;1.32;88.73;99292.16;5074583;28;20221;-61
2022/04/17 04:14:17;;;;;;;4.00;3.43;;;;;;;1.19;90.62;99294.94;5074155;28;20230;-61
2022/04/17 04:16:43;;;;;;;3.50;3.20;;;;;;;1.14;91.45;99287.22;5074386;28;20217;-61
2022/04/17 04:19:11;;;;;;;4.20;3.80;;;;;;;1.11;92.70;99291.59;5074176;28;20223;-61
2022/04/17 04:21:47;;;;;;;3.97;3.57;;;;;;;1.10;92.62;99289.88;5074104;28;20229;-61
2022/04/17 04:24:14;;;;;;;7.30;5.23;;;;;;;1.06;93.04;99291.63;5065467;28;20237;-62
2022/04/17 04:26:42;;;;;;;3.60;3.10;;;;;;;1.10;93.14;99298.53;5072354;28;20215;-61
2022/04/17 04:29:08;;;;;;;3.93;3.33;;;;;;;1.12;92.77;99294.16;5074141;28;20214;-61
2022/04/17 04:31:35;;;;;;;4.10;3.70;;;;;;;1.09;93.66;99290.72;5073744;28;20218;-61
2022/04/17 04:34:02;;;;;;;3.87;3.40;;;;;;;1.06;93.15;99283.81;5073987;28;20651;-61
2022/04/17 04:36:29;;;;;;;4.23;3.83;;;;;;;1.09;93.63;99289.00;5073618;28;20715;-61
2022/04/17 04:38:55;;;;;;;4.30;3.63;;;;;;;1.15;92.63;99283.72;5073879;28;20233;-61
2022/04/17 04:41:22;;;;;;;4.07;3.30;;;;;;;1.26;91.66;99288.75;5073080;28;20667;-61
2022/04/17 04:43:50;;;;;;;3.87;3.30;;;;;;;1.38;91.52;99294.66;5062853;28;20295;-61
2022/04/17 04:46:16;;;;;;;4.13;3.60;;;;;;;1.50;90.65;99302.31;5067407;28;20596;-62
2022/04/17 04:51:28;;;;;;;3.57;3.27;;;;;;;1.67;91.25;99302.88;5073417;28;20221;-61
2022/04/17 04:53:56;;;;;;;4.03;3.50;;;;;;;1.75;91.00;99298.44;5072017;28;20226;-61
2022/04/17 04:56:24;;;;;;;4.37;3.50;;;;;;;1.73;90.85;99305.41;5073405;28;20215;-61
2022/04/17 04:58:51;;;;;;;4.33;2.93;;;;;;;1.87;89.95;99294.75;5073513;28;20210;-61
2022/04/17 05:01:19;;;;;;;4.27;3.30;;;;;;;1.93;89.77;99305.97;5073372;28;20216;-61
2022/04/17 05:03:46;;;;;;;5.00;3.57;;;;;;;1.99;89.39;99297.16;5073427;28;20257;-61
2022/04/17 05:06:12;;;;;;;3.90;3.17;;;;;;;2.06;88.57;99294.44;5073203;28;20215;-62
2022/04/17 05:08:39;;;;;;;3.30;3.00;;;;;;;2.13;89.32;99297.78;5073341;28;20223;-62
2022/04/17 05:11:05;;;;;;;4.50;3.00;;;;;;;2.21;88.74;99288.09;5073314;28;20211;-62
2022/04/17 05:13:32;;;;;;;4.10;3.47;;;;;;;2.35;88.11;99292.19;5073110;28;20699;-61
2022/04/17 05:15:59;;;;;;;4.60;3.40;;;;;;;2.47;87.55;99301.53;5073374;28;20222;-61
2022/04/17 05:18:26;;;;;;;5.03;3.20;;;;;;;2.63;86.13;99303.81;5071115;28;20211;-62
2022/04/17 05:20:53;;;;;;;5.83;3.43;;;;;;;2.73;84.69;99294.91;5073064;28;20214;-62
2022/04/17 05:23:22;;;;;;;4.73;3.40;;;;;;;2.69;84.62;99284.56;5073247;28;20227;-62
2022/04/17 05:25:53;;;;;;;3.30;3.00;;;;;;;2.74;84.51;99301.84;5072979;28;20224;-61
2022/04/17 05:28:19;;;;;;;5.07;3.73;;;;;;;2.81;86.78;99302.59;5073068;28;20211;-62
2022/04/17 05:30:46;;;;;;;4.20;3.67;;;;;;;2.90;87.54;99298.06;5072857;28;20223;-62
2022/04/17 05:33:14;;;;;;;4.23;3.83;;;;;;;3.01;87.45;99296.06;5073150;28;20227;-63
2022/04/17 05:35:41;;;;;;;6.97;3.60;;;;;;;3.10;87.39;99301.09;5072946;28;20214;-63
2022/04/17 05:38:07;;;;;;;4.53;3.60;;;;;;;3.24;87.45;99293.81;5072883;28;20215;-62
2022/04/17 05:40:36;;;;;;;4.37;3.57;;;;;;;3.37;86.43;99297.88;5072766;28;20216;-61
2022/04/17 05:43:03;;;;;;;4.13;3.50;;;;;;;3.46;87.31;99307.28;5073003;28;20288;-61
2022/04/17 05:45:29;;;;;;;4.87;4.23;;;;;;;3.63;87.31;99303.41;5071051;28;20215;-63
2022/04/17 05:47:57;;;;;;;5.30;3.93;;;;;;;3.80;84.66;99301.22;5072634;28;20214;-62
2022/04/17 05:50:25;;;;;;;5.43;3.87;;;;;;;3.93;84.95;99307.03;5073013;28;20219;-63
2022/04/17 05:52:52;;;;;;;4.30;3.90;;;;;;;4.02;84.97;99309.41;5073057;28;20211;-62
2022/04/17 05:55:19;;;;;;;4.13;3.73;;;;;;;4.15;85.33;99310.84;5077040;28;20223;-62
2022/04/17 05:57:45;;;;;;;4.23;3.27;;;;;;;4.35;82.21;99319.88;5076894;28;20237;-62
2022/04/17 06:00:14;;;;;;;4.20;3.80;;;;;;;4.47;81.91;99316.94;5072479;28;20225;-60
2022/04/17 06:02:41;;;;;;;4.70;4.20;;;;;;;4.65;81.25;99310.38;5076652;28;20213;-63
2022/04/17 06:05:09;;;;;;;3.77;3.37;;;;;;;5.34;78.08;99308.38;5076758;28;20242;-60
2022/04/17 06:07:36;;;;;;;5.00;3.50;;;;;;;6.37;72.80;99305.06;5076953;28;20216;-61
2022/04/17 06:10:04;;;;;;;3.60;3.10;;;;;;;7.37;68.08;99297.88;5076028;28;20216;-62
2022/04/17 06:12:31;;;;;;;5.13;3.10;;;;;;;8.12;63.97;99302.72;5075451;28;20576;-61
2022/04/17 06:14:57;;;;;;;4.03;3.03;;;;;;;8.41;60.78;99289.25;5076292;28;20679;-61
2022/04/17 06:17:24;;;;;;;3.07;2.77;;;;;;;8.01;63.01;99289.16;5076340;28;20226;-61
2022/04/17 06:19:50;;;;;;;3.40;3.10;;;;;;;7.35;66.74;99291.81;5076544;28;20222;-61
2022/04/17 06:22:17;;;;;;;4.30;3.20;;;;;;;6.89;70.27;99297.06;5076732;28;20236;-62
2022/04/17 06:24:45;;;;;;;4.40;3.23;;;;;;;6.62;72.01;99292.78;5076054;28;20728;-62
2022/04/17 06:27:12;;;;;;;3.13;2.83;;;;;;;6.47;71.83;99290.69;5076134;28;20670;-61
2022/04/17 06:29:38;;;;;;;3.43;3.10;;;;;;;6.38;70.63;99293.63;5076377;28;20214;-61
2022/04/17 06:32:07;;;;;;;4.57;3.97;;;;;;;6.33;72.33;99285.06;5076441;28;20543;-60
2022/04/17 06:34:33;;;;;;;3.73;3.07;;;;;;;6.32;71.24;99283.34;5076604;28;20265;-60
2022/04/17 06:36:59;;;;;;;3.83;3.13;;;;;;;6.39;70.84;99290.09;5074497;28;20220;-61
2022/04/17 06:39:26;;;;;;;3.13;2.83;;;;;;;6.51;70.77;99283.56;5076172;28;20225;-63
2022/04/17 06:41:54;;;;;;;3.23;2.93;;;;;;;6.55;67.63;99286.03;5076394;28;20243;-62
2022/04/17 06:44:21;;;;;;;4.43;3.37;;;;;;;6.61;68.86;99291.09;5076144;28;20314;-62
2022/04/17 06:46:47;;;;;;;3.63;3.23;;;;;;;6.71;68.60;99287.19;5075750;28;20629;-62
2022/04/17 06:49:14;;;;;;;3.53;3.13;;;;;;;6.80;66.43;99286.88;5075627;28;20226;-61
2022/04/17 06:51:40;;;;;;;3.83;3.30;;;;;;;6.88;65.25;99295.34;5060902;28;20666;-62
2022/04/17 06:54:08;;;;;;;3.10;2.80;;;;;;;6.92;64.38;99285.56;5061205;28;20223;-62
2022/04/17 06:56:35;;;;;;;4.20;3.33;;;;;;;7.02;66.40;99292.22;5061941;28;20692;-61
2022/04/17 06:59:05;;;;;;;3.00;2.77;;;;;;;7.10;67.15;99293.66;5064797;28;20217;-61
2022/04/17 07:01:32;;;;;;;3.97;3.27;;;;;;;7.23;67.16;99287.03;5065046;28;20702;-62
2022/04/17 07:03:58;;;;;;;3.27;2.97;;;;;;;7.37;65.27;99279.47;5073657;28;20239;-61
2022/04/17 07:06:25;;;;;;;3.20;2.87;;;;;;;7.46;62.98;99284.34;5075814;28;20225;-61
2022/04/17 07:08:51;;;;;;;3.70;3.10;;;;;;;7.56;62.14;99280.47;5075473;28;20226;-60
2022/04/17 07:11:22;;;;;;;3.30;3.00;;;;;;;7.67;63.46;99275.63;5064621;28;20219;-61
2022/04/17 07:13:48;;;;;;;3.27;2.80;;;;;;;7.81;64.13;99281.19;5075443;28;20211;-61
2022/04/17 07:16:16;;;;;;;3.10;2.80;;;;;;;7.89;61.34;99276.50;5073320;28;20214;-61
2022/04/17 07:18:42;;;;;;;3.07;2.70;;;;;;;7.96;62.38;99273.53;5064323;28;20222;-60
2022/04/17 07:21:09;;;;;;;3.43;2.70;;;;;;;8.10;63.87;99273.00;5060840;28;20221;-62
2022/04/17 07:23:35;;;;;;;3.40;3.10;;;;;;;8.18;63.23;99265.63;5066608;28;20238;-62
2022/04/17 07:26:02;;;;;;;3.10;2.80;;;;;;;8.33;61.96;99265.84;5075447;28;20222;-62
2022/04/17 07:28:28;;;;;;;3.20;2.90;;;;;;;8.47;60.41;99257.38;5073372;28;20223;-61
2022/04/17 07:30:55;;;;;;;3.70;3.03;;;;;;;8.53;59.46;99257.97;5074961;28;20215;-61
2022/04/17 07:33:23;;;;;;;3.30;2.80;;;;;;;8.62;59.05;99252.31;5074856;28;20300;-62
2022/04/17 07:35:49;;;;;;;4.03;2.90;;;;;;;8.71;59.32;99251.03;5075099;28;20604;-61
2022/04/17 07:38:16;;;;;;;3.50;2.73;;;;;;;8.83;58.24;99242.59;5074845;28;20213;-60
2022/04/17 07:40:42;;;;;;;3.70;2.80;;;;;;;8.88;57.78;99240.63;5074686;28;20255;-61
2022/04/17 07:43:09;;;;;;;3.00;2.70;;;;;;;9.07;56.99;99236.22;5074763;28;20676;-61
2022/04/17 07:45:36;;;;;;;2.93;2.50;;;;;;;9.06;55.62;99237.97;5074517;28;20235;-60
2022/04/17 07:48:04;;;;;;;4.30;2.90;;;;;;;9.17;57.46;99233.06;5063507;28;20673;-60
2022/04/17 07:50:32;;;;;;;2.87;2.33;;;;;;;9.31;56.54;99243.00;5074806;28;20218;-61
2022/04/17 07:53:00;;;;;;;3.10;2.73;;;;;;;9.41;55.05;99242.50;5074856;28;20253;-62
2022/04/17 07:55:27;;;;;;;2.77;2.40;;;;;;;9.50;55.05;99243.84;5073262;28;20211;-60
2022/04/17 07:57:56;;;;;;;2.40;2.20;;;;;;;9.67;52.67;99242.09;5069613;28;20214;-60
2022/04/17 08:00:23;;;;;;;2.60;2.40;;;;;;;9.77;51.92;99237.22;5075012;28;20218;-60
2022/04/17 08:02:53;;;;;;;2.10;2.00;;;;;;;10.02;53.23;99227.16;5074859;28;20586;-61
2022/04/17 08:05:20;;;;;;;3.07;2.03;;;;;;;10.14;50.59;99221.31;5074864;28;20251;-60
2022/04/17 08:07:48;;;;;;;2.33;2.13;;;;;;;10.31;49.12;99213.38;5074533;28;20211;-61
2022/04/17 08:10:15;;;;;;;2.73;2.30;;;;;;;10.39;50.44;99213.88;5074610;28;20211;-61
2022/04/17 08:12:41;;;;;;;2.00;1.90;;;;;;;10.49;50.01;99217.72;5074353;28;20218;-61
2022/04/17 08:15:08;;;;;;;3.70;2.00;;;;;;;10.53;48.46;99214.84;5074250;28;20230;-61
2022/04/17 08:17:35;;;;;;;2.30;2.10;;;;;;;10.53;50.47;99214.00;5073900;28;20238;-61
2022/04/17 08:20:01;;;;;;;1.93;1.80;;;;;;;10.75;50.48;99219.88;5073958;28;20231;-60
2022/04/17 08:22:28;;;;;;;3.40;1.90;;;;;;;10.85;48.81;99221.09;5073190;28;20227;-60
2022/04/17 08:24:56;;;;;;;2.27;2.07;;;;;;;11.03;49.15;99212.19;5074065;28;20230;-60
2022/04/17 08:27:22;;;;;;;2.57;2.10;;;;;;;11.18;48.80;99216.66;5068651;28;20226;-60
2022/04/17 08:29:48;;;;;;;2.80;2.33;;;;;;;11.27;47.14;99210.84;5073078;28;20227;-60
2022/04/17 08:32:15;;;;;;;2.27;1.80;;;;;;;11.42;45.83;99205.56;5074019;28;20215;-61
2022/04/17 08:34:41;;;;;;;2.03;1.83;;;;;;;11.46;45.27;99208.88;5073983;28;20211;-60
2022/04/17 08:37:08;;;;;;;2.20;1.80;;;;;;;11.44;44.36;99210.78;5073732;28;20223;-61
2022/04/17 08:39:35;;;;;;;1.93;1.73;;;;;;;11.48;46.03;99196.41;5073479;28;20270;-62
2022/04/17 08:42:05;;;;;;;1.97;1.70;;;;;;;11.71;45.29;99190.72;5073742;28;20757;-60
2022/04/17 08:44:31;;;;;;;3.20;1.90;;;;;;;11.68;45.72;99177.66;5073686;28;20246;-60
2022/04/17 08:46:58;;;;;;;2.00;1.70;;;;;;;11.86;43.54;99177.44;5072032;28;20220;-60
2022/04/17 08:49:25;;;;;;;2.00;1.77;;;;;;;11.86;44.83;99171.31;5073450;28;20216;-61
2022/04/17 08:51:56;;;;;;;2.10;1.70;;;;;;;12.01;44.83;99170.41;5073604;28;20599;-60
2022/04/17 08:54:25;;;;;;;2.67;1.80;;;;;;;12.14;44.08;99159.00;5073576;28;20218;-61
2022/04/17 08:56:53;;;;;;;1.57;1.47;;;;;;;12.21;43.10;99155.03;5068189;28;20740;-61
2022/04/17 08:59:21;;;;;;;4.23;1.73;;;;;;;12.27;42.03;99141.41;5073385;28;20231;-61
2022/04/17 09:01:47;;;;;;;2.07;1.87;;;;;;;12.33;43.43;99150.78;5073254;28;20785;-60
2022/04/17 09:04:14;;;;;;;1.60;1.50;;;;;;;12.42;42.79;99158.19;5073407;28;20242;-61
2022/04/17 09:06:41;;;;;;;1.83;1.50;;;;;;;12.30;41.37;99150.97;5073349;28;20225;-62
2022/04/17 09:09:07;;;;;;;2.00;1.60;;;;;;;12.38;42.29;99143.41;5073127;28;20213;-62
2022/04/17 09:11:35;;;;;;;1.73;1.63;;;;;;;12.43;41.29;99133.38;5073296;28;20222;-62
2022/04/17 09:14:03;;;;;;;1.50;1.40;;;;;;;12.55;40.32;99141.47;5071746;28;20214;-61
2022/04/17 09:16:34;;;;;;;1.93;1.60;;;;;;;12.56;40.38;99129.03;5073220;28;20287;-62
2022/04/17 09:19:13;;;;;;;2.47;1.80;;;;;;;12.58;40.95;99120.03;5073255;28;20229;-60
2022/04/17 09:21:40;;;;;;;1.70;1.50;;;;;;;12.59;40.84;99115.59;5072923;28;20218;-61
2022/04/17 09:24:17;;;;;;;2.47;1.90;;;;;;;12.72;40.91;99116.53;5072749;28;20205;-61
2022/04/17 09:26:51;;;;;;;1.77;1.50;;;;;;;12.78;40.61;99105.53;5072601;28;20210;-60
2022/04/17 09:29:19;;;;;;;2.00;1.47;;;;;;;12.82;41.47;99115.00;5073054;28;20219;-60
2022/04/17 09:31:48;;;;;;;2.10;1.63;;;;;;;12.93;42.17;99109.88;5072945;28;20214;-60
2022/04/17 09:34:14;;;;;;;1.53;1.43;;;;;;;13.09;41.88;99110.66;5067787;28;20735;-60
2022/04/17 09:36:41;;;;;;;1.50;1.40;;;;;;;13.11;41.52;99112.25;5072908;28;20221;-60
2022/04/17 09:39:15;;;;;;;2.57;1.43;;;;;;;12.98;41.75;99106.03;5071471;28;20222;-60
2022/04/17 09:41:57;;;;;;;1.47;1.37;;;;;;;13.21;41.31;99110.69;5072814;28;20323;-60
2022/04/17 09:44:50;;;;;;;1.97;1.67;;;;;;;13.17;40.68;99101.25;5071778;28;20231;-60
2022/04/17 09:47:21;;;;;;;1.40;1.30;;;;;;;13.14;39.49;99097.94;5057109;28;20222;-60
2022/04/17 09:49:55;;;;;;;1.53;1.27;;;;;;;13.33;40.91;99098.47;5072665;28;20222;-60
2022/04/17 09:52:25;;;;;;;1.60;1.30;;;;;;;13.36;40.32;99085.81;5072702;28;20565;-61
2022/04/17 09:54:53;;;;;;;1.83;1.50;;;;;;;13.45;40.18;99092.34;5072932;28;20222;-62
2022/04/17 09:57:30;;;;;;;2.20;1.50;;;;;;;13.56;39.79;99096.00;5072969;28;20284;-62
2022/04/17 09:59:57;;;;;;;1.93;1.50;;;;;;;13.39;38.42;99090.09;5069015;28;20221;-61
2022/04/17 10:02:25;;;;;;;2.77;1.47;;;;;;;13.45;40.13;99076.41;5061873;28;20215;-62
2022/04/17 10:04:53;;;;;;;1.60;1.33;;;;;;;13.65;38.33;99075.94;5070706;28;20719;-60
2022/04/17 10:07:22;;;;;;;2.40;1.40;;;;;;;13.76;38.48;99076.06;5072599;28;20648;-60
2022/04/17 10:09:49;;;;;;;2.93;1.50;;;;;;;13.80;39.31;99077.56;5072843;28;20253;-60
2022/04/17 10:12:19;;;;;;;1.70;1.40;;;;;;;13.87;38.55;99070.91;5061707;28;20222;-61
2022/04/17 10:14:48;;;;;;;1.80;1.50;;;;;;;14.04;38.87;99082.06;5072639;28;20221;-61
2022/04/17 10:17:14;;;;;;;1.50;1.40;;;;;;;13.96;38.41;99072.91;5072514;28;20249;-61
2022/04/17 10:19:46;;;;;;;1.40;1.30;;;;;;;14.01;37.42;99062.84;5072728;28;20289;-61
2022/04/17 10:22:13;;;;;;;1.40;1.30;;;;;;;14.08;37.88;99057.00;5072510;28;20215;-61
2022/04/17 10:24:49;;;;;;;1.30;1.20;;;;;;;14.26;39.58;99062.88;5072559;28;20245;-61
2022/04/17 10:27:16;;;;;;;1.77;1.50;;;;;;;14.41;36.61;99060.00;5072716;28;20305;-60
2022/04/17 10:29:46;;;;;;;1.50;1.10;;;;;;;14.41;36.34;99060.00;5072646;28;20313;-61
2022/04/17 10:32:31;;;;;;;1.70;1.33;;;;;;;14.50;37.88;99063.81;5070539;28;20214;-61
2022/04/17 10:35:26;;;;;;;1.67;1.30;;;;;;;14.55;36.80;99062.53;5072249;28;20211;-61
2022/04/17 10:38:17;;;;;;;1.83;1.20;;;;;;;14.57;34.51;99059.78;5062194;28;20269;-61
2022/04/17 10:40:52;;;;;;;1.87;1.30;;;;;;;14.56;35.84;99058.94;5075549;28;20239;-61
2022/04/17 10:43:18;;;;;;;2.23;1.40;;;;;;;14.61;36.72;99048.78;5075896;28;20215;-61
2022/04/17 10:46:10;;;;;;;1.73;1.30;;;;;;;14.71;35.49;99036.53;5076085;28;20579;-61
2022/04/17 10:48:44;;;;;;;1.77;1.50;;;;;;;14.85;34.25;99040.88;5076016;28;20222;-60
2022/04/17 10:51:27;;;;;;;1.90;1.30;;;;;;;14.95;35.17;99039.25;5075824;28;20263;-61
2022/04/17 10:54:01;;;;;;;1.67;1.10;;;;;;;14.95;34.98;99034.78;5074582;28;20687;-60
2022/04/17 10:56:28;;;;;;;1.67;1.10;;;;;;;14.95;34.75;99028.59;5073914;28;20219;-61
2022/04/17 10:58:56;;;;;;;1.33;1.20;;;;;;;14.95;34.91;99025.94;5075922;28;20222;-61
2022/04/17 11:01:50;;;;;;;1.60;1.00;;;;;;;14.97;34.92;99016.03;5064629;28;20230;-61
2022/04/17 11:04:18;;;;;;;1.20;1.10;;;;;;;15.07;35.05;99017.06;5070815;28;20230;-61
2022/04/17 11:06:47;;;;;;;1.17;1.07;;;;;;;15.13;35.16;99012.13;5075696;28;20242;-60
2022/04/17 11:09:15;;;;;;;1.47;1.17;;;;;;;15.08;35.20;99008.09;5075658;28;20226;-60
2022/04/17 11:11:43;;;;;;;1.30;1.20;;;;;;;15.11;34.76;98997.25;5075679;28;20222;-61
2022/04/17 11:14:12;;;;;;;1.50;1.10;;;;;;;15.29;35.83;99006.53;5075324;28;20734;-61
2022/04/17 11:16:49;;;;;;;1.47;1.00;;;;;;;15.35;36.45;99004.31;5075594;28;20228;-60
2022/04/17 11:19:18;;;;;;;1.53;1.20;;;;;;;15.44;34.66;99005.41;5065777;28;20218;-61
2022/04/17 11:21:45;;;;;;;2.23;1.27;;;;;;;15.32;34.18;99006.28;5075352;28;20290;-60
2022/04/17 11:24:14;;;;;;;1.37;1.20;;;;;;;15.32;36.17;99001.84;5073294;28;20684;-62
2022/04/17 11:27:09;;;;;;;1.50;1.40;;;;;;;15.35;35.28;98990.13;5075098;28;20246;-60
2022/04/17 11:29:37;;;;;;;1.57;1.47;;;;;;;15.48;34.78;98990.91;5075020;28;20624;-60
2022/04/17 11:32:25;;;;;;;1.47;1.30;;;;;;;15.40;36.38;98986.13;5074906;28;20584;-61
2022/04/17 11:34:53;;;;;;;1.60;1.30;;;;;;;15.68;35.34;98984.91;5064174;28;20227;-61
2022/04/17 11:37:20;;;;;;;1.50;1.23;;;;;;;15.65;35.00;98974.50;5075048;28;20680;-61
2022/04/17 11:39:48;;;;;;;1.37;1.13;;;;;;;15.66;36.43;98973.50;5075269;28;20212;-61
2022/04/17 11:42:15;;;;;;;2.20;1.40;;;;;;;15.84;35.10;98972.09;5075248;28;20251;-60
2022/04/17 11:44:42;;;;;;;1.33;1.20;;;;;;;15.92;33.85;98964.34;5075090;28;20216;-60
2022/04/17 11:47:14;;;;;;;3.13;1.10;;;;;;;15.93;34.00;98952.72;5074888;28;20216;-61
2022/04/17 11:49:40;;;;;;;1.57;1.20;;;;;;;15.87;34.39;98954.06;5072788;28;20218;-60
2022/04/17 11:52:11;;;;;;;1.40;1.30;;;;;;;15.98;33.35;98960.25;5074828;28;20227;-60